Time;durP1;ratioP1;P1;durP2;ratioP2;P2;SDS_P1;SDS_P2;PMS_P1;PMS_P2;Temp;Humidity;BMP_temperature;BMP_pressure;BME280_temperature;BME280_humidity;BME280_pressure;Samples;Min_cycle;Max_cycle;Signal;HPM_P1;HPM_P2
2022/09/28 00:01:23;;;;;;;0.10;0.10;;;;;;;6.69;100.00;99500.72;5065283;28;20317;-78
2022/09/28 00:03:52;;;;;;;0.10;0.10;;;;;;;6.63;100.00;99482.53;5079590;28;20405;-78
2022/09/28 00:06:20;;;;;;;0.10;0.10;;;;;;;6.76;100.00;99515.22;5073046;28;20027;-79
2022/09/28 00:08:45;;;;;;;0.10;0.10;;;;;;;6.62;100.00;99495.06;5066021;28;20032;-79
2022/09/28 00:11:14;;;;;;;0.10;0.10;;;;;;;6.64;100.00;99502.91;5089257;28;20073;-78
2022/09/28 00:13:40;;;;;;;0.10;0.10;;;;;;;6.73;100.00;99496.81;5064427;28;20030;-80
2022/09/28 00:16:07;;;;;;;0.10;0.10;;;;;;;6.73;100.00;99504.81;5074111;28;20027;-80
2022/09/28 00:18:34;;;;;;;0.10;0.10;;;;;;;6.45;100.00;99483.94;5089019;28;20099;-79
2022/09/28 00:21:05;;;;;;;0.10;0.10;;;;;;;6.45;100.00;99475.09;5087042;28;20508;-80
2022/09/28 00:23:32;;;;;;;0.00;0.00;;;;;;;6.65;100.00;99504.59;5060944;28;20047;-79
2022/09/28 00:26:02;;;;;;;0.10;0.10;;;;;;;6.45;100.00;99467.94;5089306;28;20458;-78
2022/09/28 00:28:27;;;;;;;0.10;0.10;;;;;;;6.69;100.00;99514.88;5056492;28;20032;-76
2022/09/28 00:30:57;;;;;;;0.10;0.10;;;;;;;6.63;100.00;99501.22;5066813;28;20024;-75
2022/09/28 00:33:22;;;;;;;0.10;0.10;;;;;;;6.78;100.00;99513.28;5078516;28;20035;-76
2022/09/28 00:35:56;;;;;;;0.10;0.10;;;;;;;6.84;100.00;99515.44;5079389;28;20107;-77
2022/09/28 00:38:21;;;;;;;0.00;0.00;;;;;;;6.82;100.00;99512.03;5083550;28;20107;-77
2022/09/28 00:40:46;;;;;;;0.00;0.00;;;;;;;6.64;100.00;99477.06;5080651;28;20454;-77
2022/09/28 00:43:19;;;;;;;0.10;0.10;;;;;;;6.71;100.00;99485.44;5083623;28;20023;-76
2022/09/28 00:45:45;;;;;;;0.10;0.10;;;;;;;6.83;100.00;99512.91;5087157;28;20480;-76
2022/09/28 00:48:11;;;;;;;0.10;0.10;;;;;;;6.71;100.00;99477.44;5067712;28;20363;-76
2022/09/28 00:50:37;;;;;;;0.10;0.10;;;;;;;6.81;100.00;99483.66;5087088;28;20028;-76
2022/09/28 00:53:07;;;;;;;0.10;0.10;;;;;;;6.93;100.00;99499.63;5080975;28;20074;-76
2022/09/28 00:55:46;;;;;;;0.10;0.10;;;;;;;6.97;100.00;99493.06;5079114;28;20036;-77
2022/09/28 00:58:15;;;;;;;0.10;0.10;;;;;;;7.02;100.00;99499.72;5077199;28;20513;-76
2022/09/28 01:00:40;;;;;;;0.22;0.20;;;;;;;7.02;100.00;99493.50;5084985;28;20489;-76
2022/09/28 01:03:07;;;;;;;0.10;0.10;;;;;;;7.03;100.00;99489.88;5089823;28;20326;-76
2022/09/28 01:05:33;;;;;;;0.10;0.10;;;;;;;7.12;100.00;99488.25;5088741;28;20040;-76
2022/09/28 01:08:00;;;;;;;0.10;0.10;;;;;;;7.14;100.00;99499.66;5086145;28;20077;-77
2022/09/28 01:10:27;;;;;;;0.20;0.20;;;;;;;7.05;100.00;99467.41;5089402;28;20058;-76
2022/09/28 01:12:54;;;;;;;0.10;0.10;;;;;;;7.20;100.00;99494.63;5080196;28;20422;-76
2022/09/28 01:15:20;;;;;;;0.10;0.10;;;;;;;7.11;100.00;99471.38;5083313;28;20446;-76
2022/09/28 01:17:48;;;;;;;0.10;0.10;;;;;;;7.22;100.00;99486.47;5088665;28;20036;-76
2022/09/28 01:20:27;;;;;;;0.10;0.10;;;;;;;7.21;100.00;99492.78;5081978;28;20024;-77
2022/09/28 01:23:26;;;;;;;0.10;0.10;;;;;;;7.25;100.00;99493.41;5081055;28;20106;-76
2022/09/28 01:26:17;;;;;;;0.10;0.10;;;;;;;7.20;100.00;99491.97;5083564;28;20373;-76
2022/09/28 01:28:43;;;;;;;0.10;0.10;;;;;;;7.19;100.00;99492.06;5082842;28;20107;-77
2022/09/28 01:31:10;;;;;;;0.20;0.20;;;;;;;7.24;100.00;99495.22;5085767;28;20679;-78
2022/09/28 01:33:39;;;;;;;0.10;0.10;;;;;;;7.20;100.00;99480.44;5086192;28;20115;-76
2022/09/28 01:36:11;;;;;;;0.10;0.10;;;;;;;7.22;100.00;99482.97;5091118;28;20024;-77
2022/09/28 01:38:42;;;;;;;0.10;0.10;;;;;;;7.23;100.00;99500.69;5078377;28;20024;-77
2022/09/28 01:41:08;;;;;;;0.15;0.15;;;;;;;7.22;100.00;99493.66;5084798;28;20036;-77
2022/09/28 01:43:37;;;;;;;0.10;0.10;;;;;;;7.23;100.00;99490.84;5081070;28;20085;-78
2022/09/28 01:46:11;;;;;;;0.10;0.10;;;;;;;7.01;100.00;99462.50;5080485;28;20111;-78
2022/09/28 01:48:50;;;;;;;0.10;0.10;;;;;;;6.99;100.00;99475.09;5068590;28;20023;-77
2022/09/28 01:51:21;;;;;;;0.00;0.00;;;;;;;7.10;100.00;99484.88;5093675;28;20059;-77
2022/09/28 01:53:50;;;;;;;0.10;0.10;;;;;;;6.95;100.00;99474.50;5084525;28;20513;-78
2022/09/28 01:56:21;;;;;;;0.10;0.10;;;;;;;6.87;100.00;99483.16;5088940;28;20031;-79
2022/09/28 01:58:53;;;;;;;0.10;0.10;;;;;;;6.86;100.00;99478.81;5083457;28;20055;-78
2022/09/28 02:01:37;;;;;;;0.10;0.10;;;;;;;6.79;100.00;99477.63;5093157;28;20156;-78
2022/09/28 02:04:11;;;;;;;0.10;0.10;;;;;;;6.68;100.00;99457.19;5094496;27;20019;-78
2022/09/28 02:06:40;;;;;;;0.10;0.10;;;;;;;6.66;100.00;99447.63;5072156;28;20076;-78
2022/09/28 02:09:09;;;;;;;0.10;0.10;;;;;;;6.67;100.00;99458.16;5090898;28;20039;-78
2022/09/28 02:11:37;;;;;;;0.10;0.10;;;;;;;6.76;100.00;99475.19;5078942;28;20402;-78
2022/09/28 02:14:04;;;;;;;0.10;0.10;;;;;;;6.85;100.00;99486.94;5086369;28;20024;-78
2022/09/28 02:16:37;;;;;;;0.10;0.10;;;;;;;6.85;100.00;99490.44;5094895;28;20477;-77
2022/09/28 02:19:03;;;;;;;0.10;0.10;;;;;;;6.72;100.00;99457.78;5094141;28;20475;-77
2022/09/28 02:21:33;;;;;;;0.10;0.10;;;;;;;6.79;100.00;99492.78;5093378;28;20027;-77
2022/09/28 02:24:18;;;;;;;0.10;0.10;;;;;;;6.78;100.00;99477.75;5063316;28;20031;-78
2022/09/28 02:26:45;;;;;;;0.10;0.10;;;;;;;6.75;100.00;99462.88;5075416;28;20078;-78
2022/09/28 02:29:11;;;;;;;0.10;0.10;;;;;;;6.82;100.00;99472.03;5094469;28;20027;-78
2022/09/28 02:31:36;;;;;;;0.10;0.10;;;;;;;6.86;100.00;99483.31;5096392;28;20039;-78
2022/09/28 02:34:02;;;;;;;0.10;0.10;;;;;;;6.97;100.00;99491.25;5092558;28;20031;-78
2022/09/28 02:36:27;;;;;;;0.20;0.20;;;;;;;6.90;100.00;99485.56;5088845;28;20052;-78
2022/09/28 02:38:53;;;;;;;0.10;0.10;;;;;;;6.94;100.00;99482.66;5088987;28;20034;-78
2022/09/28 02:41:30;;;;;;;0.10;0.10;;;;;;;6.91;100.00;99489.06;5090903;28;20073;-77
2022/09/28 02:44:06;;;;;;;0.10;0.10;;;;;;;6.98;100.00;99478.75;5083570;28;20021;-78
2022/09/28 02:47:13;;;;;;;0.10;0.10;;;;;;;7.12;100.00;99493.59;5068334;28;20323;-78
2022/09/28 02:49:45;;;;;;;0.10;0.10;;;;;;;7.09;100.00;99485.84;5088691;28;20043;-78
2022/09/28 02:52:17;;;;;;;0.10;0.10;;;;;;;7.13;100.00;99495.28;5086139;28;20028;-78
2022/09/28 02:55:10;;;;;;;0.10;0.10;;;;;;;7.14;100.00;99492.47;5092664;28;20028;-79
2022/09/28 02:57:55;;;;;;;0.10;0.10;;;;;;;7.22;100.00;99488.31;5092380;28;20027;-77
2022/09/28 03:00:22;;;;;;;0.10;0.10;;;;;;;7.22;100.00;99493.66;5093367;28;20119;-78
2022/09/28 03:03:02;;;;;;;0.10;0.10;;;;;;;6.86;100.00;99462.78;5090795;28;20035;-79
2022/09/28 03:05:40;;;;;;;0.10;0.10;;;;;;;7.00;100.00;99480.31;5084797;28;20020;-78
2022/09/28 03:08:11;;;;;;;0.10;0.10;;;;;;;7.01;100.00;99467.81;5082761;28;20032;-79
2022/09/28 03:10:43;;;;;;;0.20;0.20;;;;;;;7.05;100.00;99470.09;5086182;28;20102;-78
2022/09/28 03:13:10;;;;;;;0.20;0.20;;;;;;;7.05;100.00;99475.44;5084955;28;20057;-78
2022/09/28 03:15:35;;;;;;;0.10;0.10;;;;;;;7.16;100.00;99489.66;5089172;28;20032;-79
2022/09/28 03:18:01;;;;;;;0.00;0.00;;;;;;;7.13;100.00;99487.28;5082169;28;20481;-78
2022/09/28 03:20:27;;;;;;;0.10;0.10;;;;;;;7.14;100.00;99489.81;5085496;28;20039;-79
2022/09/28 03:22:53;;;;;;;0.10;0.10;;;;;;;7.04;100.00;99481.75;5082472;28;20028;-78
2022/09/28 03:25:19;;;;;;;0.00;0.00;;;;;;;6.93;100.00;99456.94;5085173;28;20381;-79
2022/09/28 03:27:45;;;;;;;0.10;0.10;;;;;;;7.20;100.00;99491.09;5086639;28;20042;-79
2022/09/28 03:30:11;;;;;;;0.10;0.10;;;;;;;7.16;100.00;99492.34;5091265;28;20028;-78
2022/09/28 03:32:37;;;;;;;0.00;0.00;;;;;;;6.98;100.00;99466.25;5086090;28;20024;-78
2022/09/28 03:35:03;;;;;;;0.10;0.10;;;;;;;7.23;100.00;99508.69;5093775;28;20038;-77
2022/09/28 03:37:28;;;;;;;0.10;0.10;;;;;;;7.10;100.00;99482.19;5086560;28;20073;-78
2022/09/28 03:39:54;;;;;;;0.10;0.10;;;;;;;7.15;100.00;99496.84;5086641;28;20390;-77
2022/09/28 03:42:19;;;;;;;0.10;0.10;;;;;;;7.12;100.00;99482.91;5080466;28;20100;-78
2022/09/28 03:44:44;;;;;;;0.10;0.10;;;;;;;7.25;100.00;99502.25;5090243;28;20020;-78
2022/09/28 03:47:10;;;;;;;0.10;0.10;;;;;;;7.28;100.00;99493.13;5087068;28;20127;-78
2022/09/28 03:49:35;;;;;;;0.10;0.10;;;;;;;7.27;100.00;99491.44;5085709;28;20027;-76
2022/09/28 03:52:01;;;;;;;0.10;0.10;;;;;;;7.33;100.00;99502.44;5084330;28;20035;-78
2022/09/28 03:54:27;;;;;;;0.10;0.10;;;;;;;7.30;100.00;99502.69;5091202;28;20466;-78
2022/09/28 03:56:52;;;;;;;0.10;0.10;;;;;;;7.29;100.00;99494.81;5083120;28;20530;-78
2022/09/28 03:59:17;;;;;;;0.10;0.10;;;;;;;7.14;100.00;99471.13;5089398;28;20991;-79
2022/09/28 04:01:43;;;;;;;0.10;0.10;;;;;;;7.27;100.00;99499.47;5087876;28;20025;-78
2022/09/28 04:04:12;;;;;;;0.10;0.10;;;;;;;7.15;100.00;99491.50;5088738;28;20044;-77
2022/09/28 04:06:37;;;;;;;0.10;0.10;;;;;;;7.18;100.00;99483.25;5082312;28;20035;-79
2022/09/28 04:09:03;;;;;;;0.10;0.10;;;;;;;7.30;100.00;99501.84;5082367;28;20036;-75
2022/09/28 04:11:28;;;;;;;0.10;0.10;;;;;;;7.34;100.00;99498.78;5087530;28;20024;-78
2022/09/28 04:13:54;;;;;;;0.10;0.10;;;;;;;7.26;100.00;99493.25;5084129;28;20055;-77
2022/09/28 04:16:19;;;;;;;0.10;0.10;;;;;;;7.01;100.00;99449.16;5084938;28;20036;-77
2022/09/28 04:18:45;;;;;;;0.10;0.10;;;;;;;7.20;100.00;99489.28;5069813;28;20042;-79
2022/09/28 04:21:12;;;;;;;0.10;0.10;;;;;;;7.24;100.00;99486.38;5081143;28;20042;-78
2022/09/28 04:23:38;;;;;;;0.10;0.10;;;;;;;7.23;100.00;99493.50;5097497;27;20035;-79
2022/09/28 04:26:05;;;;;;;0.10;0.10;;;;;;;7.23;100.00;99490.84;5084937;28;20500;-79
2022/09/28 04:31:17;;;;;;;0.10;0.10;;;;;;;7.05;100.00;99478.09;5090974;28;20101;-76
2022/09/28 04:33:42;;;;;;;0.00;0.00;;;;;;;6.90;100.00;99458.03;5088797;28;20028;-76
2022/09/28 04:36:09;;;;;;;0.10;0.10;;;;;;;7.04;100.00;99481.75;5090883;28;20074;-77
2022/09/28 04:38:35;;;;;;;0.10;0.10;;;;;;;7.07;100.00;99498.47;5084593;28;20042;-76
2022/09/28 04:41:00;;;;;;;0.10;0.10;;;;;;;6.96;100.00;99489.53;5086971;28;20036;-76
2022/09/28 04:43:26;;;;;;;0.10;0.10;;;;;;;6.92;100.00;99480.09;5087201;28;20031;-77
2022/09/28 04:45:51;;;;;;;0.10;0.10;;;;;;;6.83;100.00;99480.88;5091951;28;20030;-77
2022/09/28 04:48:17;;;;;;;0.08;0.08;;;;;;;6.85;100.00;99485.13;5091035;28;20032;-77
2022/09/28 04:50:42;;;;;;;0.10;0.10;;;;;;;6.63;100.00;99470.03;5088975;28;20411;-76
2022/09/28 04:53:07;;;;;;;0.00;0.00;;;;;;;6.68;100.00;99489.19;5091418;28;20058;-77
2022/09/28 04:55:33;;;;;;;0.10;0.10;;;;;;;6.62;100.00;99486.19;5092614;28;20024;-76
2022/09/28 04:58:02;;;;;;;0.10;0.10;;;;;;;6.65;100.00;99493.94;5091646;28;20070;-77
2022/09/28 05:00:28;;;;;;;0.10;0.10;;;;;;;6.30;100.00;99478.03;5090031;28;20040;-77
2022/09/28 05:02:54;;;;;;;0.10;0.10;;;;;;;6.49;100.00;99510.34;5089967;28;20103;-77
2022/09/28 05:05:20;;;;;;;0.10;0.10;;;;;;;6.44;100.00;99502.75;5092199;28;20028;-77
2022/09/28 05:07:45;;;;;;;0.10;0.10;;;;;;;6.36;100.00;99511.34;5090915;28;20076;-77
2022/09/28 05:10:11;;;;;;;0.10;0.10;;;;;;;6.26;100.00;99508.59;5089819;28;20728;-77
2022/09/28 05:12:36;;;;;;;0.10;0.10;;;;;;;6.18;100.00;99496.84;5090725;28;20036;-77
2022/09/28 05:15:02;;;;;;;0.10;0.10;;;;;;;6.29;100.00;99502.19;5092187;28;20035;-77
2022/09/28 05:17:27;;;;;;;0.10;0.10;;;;;;;6.17;100.00;99480.03;5087535;28;20102;-77
2022/09/28 05:19:52;;;;;;;0.10;0.10;;;;;;;6.45;100.00;99515.09;5086735;28;20031;-77
2022/09/28 05:22:18;;;;;;;0.10;0.10;;;;;;;6.38;100.00;99513.91;5082846;28;20056;-78
2022/09/28 05:24:45;;;;;;;0.10;0.10;;;;;;;6.25;100.00;99495.41;5087866;28;20019;-77
2022/09/28 05:27:10;;;;;;;0.10;0.10;;;;;;;6.19;100.00;99486.09;5084469;28;20035;-78
2022/09/28 05:29:36;;;;;;;0.10;0.10;;;;;;;6.20;100.00;99484.25;5090847;28;20093;-78
2022/09/28 05:32:01;;;;;;;0.10;0.10;;;;;;;6.34;100.00;99512.44;5082063;28;20027;-78
2022/09/28 05:34:28;;;;;;;0.13;0.13;;;;;;;6.31;100.00;99510.91;5091220;28;20050;-78
2022/09/28 05:36:53;;;;;;;0.10;0.10;;;;;;;6.34;100.00;99517.78;5083754;28;20023;-78
2022/09/28 05:39:18;;;;;;;0.10;0.10;;;;;;;6.28;100.00;99506.66;5091174;28;20032;-78
2022/09/28 05:41:44;;;;;;;0.10;0.10;;;;;;;6.26;100.00;99505.91;5089277;28;20016;-79
2022/09/28 05:44:09;;;;;;;0.10;0.10;;;;;;;6.32;100.00;99515.25;5085549;28;20035;-78
2022/09/28 05:46:34;;;;;;;0.00;0.00;;;;;;;6.19;100.00;99498.56;5088985;28;20305;-78
2022/09/28 05:49:00;;;;;;;0.10;0.10;;;;;;;6.30;100.00;99514.53;5092005;28;20118;-78
2022/09/28 05:51:25;;;;;;;0.10;0.10;;;;;;;6.13;100.00;99486.59;5092172;28;20427;-78
2022/09/28 05:53:54;;;;;;;0.10;0.10;;;;;;;6.26;100.00;99516.59;5080554;28;20035;-78
2022/09/28 05:56:19;;;;;;;0.10;0.10;;;;;;;6.35;100.00;99527.47;5090773;28;20058;-79
2022/09/28 05:58:44;;;;;;;0.10;0.10;;;;;;;6.22;100.00;99512.50;5062581;28;20122;-79
2022/09/28 06:01:10;;;;;;;0.10;0.10;;;;;;;6.18;100.00;99503.06;5085639;28;20487;-79
2022/09/28 06:03:35;;;;;;;0.10;0.10;;;;;;;6.40;100.00;99528.78;5087609;28;20027;-78
2022/09/28 06:06:01;;;;;;;0.10;0.10;;;;;;;6.25;100.00;99509.56;5066368;28;20116;-78
2022/09/28 06:08:26;;;;;;;0.10;0.10;;;;;;;6.52;100.00;99534.09;5085866;28;20051;-78
2022/09/28 06:10:52;;;;;;;0.08;0.08;;;;;;;6.66;100.00;99522.31;5077863;28;20525;-79
2022/09/28 06:13:17;;;;;;;0.10;0.10;;;;;;;6.64;100.00;99533.09;5093125;28;20063;-78
2022/09/28 06:15:45;;;;;;;0.20;0.20;;;;;;;6.67;100.00;99518.66;5104991;28;20032;-78
2022/09/28 06:18:13;;;;;;;0.20;0.20;;;;;;;6.84;100.00;99534.09;5097751;28;20023;-78
2022/09/28 06:20:41;;;;;;;0.10;0.10;;;;;;;6.94;100.00;99542.19;5092639;28;20577;-78
2022/09/28 06:23:11;;;;;;;0.10;0.10;;;;;;;7.02;100.00;99544.22;5071469;28;20039;-79
2022/09/28 06:25:36;;;;;;;0.10;0.10;;;;;;;6.97;100.00;99525.94;5080426;28;20024;-78
2022/09/28 06:28:04;;;;;;;0.10;0.10;;;;;;;7.17;100.00;99544.75;5071504;28;20035;-78
2022/09/28 06:30:32;;;;;;;0.10;0.10;;;;;;;7.14;100.00;99527.19;5077297;28;20027;-79
2022/09/28 06:32:59;;;;;;;0.10;0.10;;;;;;;7.31;100.00;99543.56;5081471;28;20470;-79
2022/09/28 06:35:26;;;;;;;0.08;0.08;;;;;;;7.32;100.00;99553.28;5088608;28;20028;-79
2022/09/28 06:37:52;;;;;;;0.10;0.10;;;;;;;7.30;100.00;99561.44;5070367;28;20078;-79
2022/09/28 06:40:19;;;;;;;0.00;0.00;;;;;;;7.31;100.00;99559.59;5079891;28;20035;-77
2022/09/28 06:42:54;;;;;;;0.10;0.10;;;;;;;7.32;100.00;99559.50;5084113;28;20057;-78
2022/09/28 06:45:23;;;;;;;0.10;0.10;;;;;;;7.48;100.00;99567.03;5084921;28;20050;-78
2022/09/28 06:47:58;;;;;;;0.10;0.10;;;;;;;7.38;100.00;99566.13;5089163;28;20579;-75
2022/09/28 06:50:25;;;;;;;0.10;0.10;;;;;;;7.53;100.00;99555.97;5090191;28;20106;-76
2022/09/28 06:52:54;;;;;;;0.10;0.10;;;;;;;7.66;100.00;99563.75;5085366;28;20118;-75
2022/09/28 06:55:20;;;;;;;0.10;0.10;;;;;;;7.59;100.00;99558.09;5084511;28;20071;-75
2022/09/28 06:57:46;;;;;;;0.10;0.10;;;;;;;7.74;100.00;99571.09;5087446;28;20042;-77
2022/09/28 07:00:12;;;;;;;0.10;0.10;;;;;;;7.67;100.00;99545.94;5076624;28;20037;-76
2022/09/28 07:02:37;;;;;;;0.10;0.10;;;;;;;7.75;100.00;99551.44;5079764;28;20031;-76
2022/09/28 07:05:03;;;;;;;0.05;0.05;;;;;;;7.72;100.00;99562.38;5077131;28;20058;-75
2022/09/28 07:07:30;;;;;;;0.00;0.00;;;;;;;7.73;100.00;99572.09;5075750;28;20043;-75
2022/09/28 07:09:55;;;;;;;0.10;0.10;;;;;;;7.62;100.00;99557.84;5083813;28;20277;-75
2022/09/28 07:12:22;;;;;;;0.10;0.10;;;;;;;7.78;100.00;99578.75;5083076;28;20046;-76
2022/09/28 07:14:48;;;;;;;0.10;0.10;;;;;;;7.79;100.00;99571.56;5066210;28;20028;-76
2022/09/28 07:17:14;;;;;;;0.10;0.10;;;;;;;7.90;100.00;99579.50;5075201;28;20067;-76
2022/09/28 07:19:39;;;;;;;0.10;0.10;;;;;;;7.96;100.00;99586.13;5085081;28;20051;-75
2022/09/28 07:22:05;;;;;;;0.00;0.00;;;;;;;8.02;100.00;99580.25;5077537;28;20595;-75
2022/09/28 07:24:30;;;;;;;0.10;0.10;;;;;;;8.04;100.00;99586.31;5078303;28;20026;-77
2022/09/28 07:26:55;;;;;;;0.10;0.10;;;;;;;8.14;100.00;99586.38;5087697;28;20028;-72
2022/09/28 07:29:22;;;;;;;0.10;0.10;;;;;;;7.94;100.00;99554.22;5076807;28;20032;-75
2022/09/28 07:31:47;;;;;;;0.10;0.10;;;;;;;8.19;100.00;99573.44;5085387;28;20848;-78
2022/09/28 07:34:12;;;;;;;0.10;0.10;;;;;;;8.25;100.00;99601.47;5089456;28;20032;-79
2022/09/28 07:36:38;;;;;;;0.10;0.10;;;;;;;8.47;100.00;99600.41;5082666;28;20031;-75
2022/09/28 07:39:03;;;;;;;0.10;0.10;;;;;;;8.51;100.00;99595.66;5085705;28;20024;-68
2022/09/28 07:41:31;;;;;;;0.10;0.10;;;;;;;8.35;100.00;99583.59;5066920;28;20275;-78
2022/09/28 07:44:06;;;;;;;0.10;0.10;;;;;;;8.61;100.00;99609.06;5079351;28;20024;-78
2022/09/28 07:46:35;;;;;;;0.10;0.10;;;;;;;8.82;100.00;99607.13;5077608;28;20032;-78
2022/09/28 07:49:04;;;;;;;0.10;0.10;;;;;;;8.81;100.00;99604.59;5081880;28;21036;-73
2022/09/28 07:51:30;;;;;;;0.10;0.10;;;;;;;8.74;100.00;99592.75;5088105;28;20032;-76
2022/09/28 07:53:55;;;;;;;0.00;0.00;;;;;;;8.92;100.00;99599.09;5073072;28;20476;-83
2022/09/28 07:56:20;;;;;;;0.10;0.10;;;;;;;9.04;100.00;99615.88;5081523;28;20032;-75
2022/09/28 07:58:46;;;;;;;0.10;0.10;;;;;;;9.27;100.00;99627.19;5081939;28;20032;-76
2022/09/28 08:01:15;;;;;;;0.10;0.10;;;;;;;9.37;100.00;99629.03;5078199;28;20042;-78
2022/09/28 08:03:46;;;;;;;0.00;0.00;;;;;;;9.51;100.00;99627.75;5084228;28;20027;-78
2022/09/28 08:06:15;;;;;;;0.10;0.10;;;;;;;9.51;100.00;99630.41;5088474;28;20058;-80
2022/09/28 08:08:42;;;;;;;0.10;0.10;;;;;;;9.60;100.00;99632.22;5093318;28;20134;-77
2022/09/28 08:11:09;;;;;;;0.00;0.00;;;;;;;9.77;100.00;99636.00;5084309;28;20028;-73
2022/09/28 08:13:37;;;;;;;0.10;0.10;;;;;;;9.69;100.00;99627.84;5087271;28;20107;-78
2022/09/28 08:16:03;;;;;;;0.10;0.10;;;;;;;9.93;100.00;99638.09;5079988;28;20090;-80
2022/09/28 08:18:29;;;;;;;0.10;0.10;;;;;;;10.02;100.00;99644.41;5079738;28;20425;-79
2022/09/28 08:23:39;;;;;;;0.10;0.10;;;;;;;10.31;100.00;99633.63;5079050;28;20065;-79
2022/09/28 08:26:04;;;;;;;0.10;0.10;;;;;;;10.27;100.00;99625.97;5073475;28;20398;-79
2022/09/28 08:28:30;;;;;;;0.10;0.10;;;;;;;10.50;100.00;99639.91;5080278;28;20043;-79
2022/09/28 08:30:58;;;;;;;0.10;0.10;;;;;;;10.38;100.00;99623.13;5078385;28;20024;-78
2022/09/28 08:33:23;;;;;;;0.05;0.05;;;;;;;10.64;100.00;99650.13;5066918;28;20065;-79
2022/09/28 08:35:59;;;;;;;0.00;0.00;;;;;;;10.54;100.00;99638.63;5081229;28;20428;-79
2022/09/28 08:38:25;;;;;;;0.10;0.10;;;;;;;10.76;100.00;99658.81;5077346;28;20402;-75
2022/09/28 08:41:26;;;;;;;0.10;0.10;;;;;;;10.94;100.00;99655.34;5076492;28;20363;-79
2022/09/28 08:43:55;;;;;;;0.10;0.10;;;;;;;11.08;100.00;99646.75;5082583;28;20054;-76
2022/09/28 08:46:24;;;;;;;0.10;0.10;;;;;;;11.31;100.00;99661.59;5078938;28;20032;-78
2022/09/28 08:49:07;;;;;;;0.10;0.10;;;;;;;11.39;100.00;99648.22;5080851;28;20032;-78
2022/09/28 08:51:51;;;;;;;0.10;0.10;;;;;;;11.50;100.00;99658.75;5081537;28;20027;-80
2022/09/28 08:54:29;;;;;;;0.10;0.10;;;;;;;11.55;100.00;99666.34;5086287;28;20024;-79
2022/09/28 08:57:05;;;;;;;0.00;0.00;;;;;;;11.62;100.00;99666.59;5074803;28;20051;-77
2022/09/28 08:59:42;;;;;;;0.10;0.10;;;;;;;11.54;100.00;99660.13;5072782;28;20557;-78
2022/09/28 09:02:14;;;;;;;0.05;0.05;;;;;;;11.77;100.00;99653.44;5080887;28;20069;-74
2022/09/28 09:04:40;;;;;;;0.03;0.03;;;;;;;12.08;100.00;99661.06;5080803;28;20020;-79
2022/09/28 09:07:38;;;;;;;0.10;0.10;;;;;;;12.35;100.00;99670.81;5086659;28;20050;-79
2022/09/28 09:10:10;;;;;;;0.10;0.10;;;;;;;12.47;100.00;99662.44;5082610;28;20823;-79
2022/09/28 09:12:49;;;;;;;0.00;0.00;;;;;;;12.37;96.99;99646.41;5083274;28;20042;-77
2022/09/28 09:15:20;;;;;;;0.00;0.00;;;;;;;12.65;100.00;99648.91;5074745;28;20141;-77
2022/09/28 09:18:25;;;;;;;0.10;0.10;;;;;;;12.78;100.00;99667.28;5070802;28;20370;-76
2022/09/28 09:20:58;;;;;;;0.00;0.00;;;;;;;12.57;96.96;99671.25;5080538;28;20047;-81
2022/09/28 09:23:56;;;;;;;0.10;0.10;;;;;;;12.33;95.17;99680.91;5077415;28;20036;-77
2022/09/28 09:26:40;;;;;;;0.10;0.10;;;;;;;12.40;98.07;99686.47;5074582;28;20044;-75
2022/09/28 09:29:39;;;;;;;0.10;0.10;;;;;;;12.51;100.00;99683.53;5080845;28;20028;-75
2022/09/28 09:32:25;;;;;;;0.08;0.08;;;;;;;12.52;100.00;99677.13;5078858;28;20371;-77
2022/09/28 09:35:12;;;;;;;0.10;0.10;;;;;;;12.54;100.00;99683.19;5080432;28;20037;-75
2022/09/28 09:37:59;;;;;;;0.00;0.00;;;;;;;12.45;96.89;99684.16;5082570;28;20031;-74
2022/09/28 09:40:55;;;;;;;0.10;0.10;;;;;;;12.40;98.05;99687.34;5080915;28;20032;-76
2022/09/28 09:43:57;;;;;;;0.10;0.10;;;;;;;12.69;94.72;99696.03;5071291;28;20489;-81
2022/09/28 09:46:32;;;;;;;0.00;0.00;;;;;;;12.74;94.76;99678.38;5086726;28;20031;-77
2022/09/28 09:49:04;;;;;;;0.10;0.10;;;;;;;12.74;100.00;99677.56;5073105;28;20571;-76
2022/09/28 09:51:41;;;;;;;0.10;0.10;;;;;;;12.81;95.35;99692.06;5076019;28;20028;-78
2022/09/28 09:54:34;;;;;;;0.00;0.00;;;;;;;13.01;89.99;99702.56;5080722;28;20035;-81
2022/09/28 09:57:04;;;;;;;0.10;0.10;;;;;;;12.89;97.46;99678.63;5067670;28;20040;-77
2022/09/28 09:59:32;;;;;;;0.10;0.10;;;;;;;12.95;98.48;99655.59;5074174;28;20032;-76
2022/09/28 10:02:00;;;;;;;0.00;0.00;;;;;;;13.49;96.08;99673.25;5075451;28;20119;-76
2022/09/28 10:04:34;;;;;;;0.10;0.10;;;;;;;13.92;91.47;99682.00;5082600;28;20050;-77
2022/09/28 10:07:04;;;;;;;0.10;0.10;;;;;;;14.03;82.65;99696.16;5062313;28;20493;-78
2022/09/28 10:09:33;;;;;;;0.10;0.10;;;;;;;14.36;88.20;99677.19;5080448;28;20033;-77
2022/09/28 10:11:59;;;;;;;0.10;0.10;;;;;;;14.35;84.41;99664.69;5084057;28;20024;-77
2022/09/28 10:14:24;;;;;;;0.00;0.00;;;;;;;14.82;88.02;99693.63;5091157;28;20032;-76
2022/09/28 10:16:52;;;;;;;0.00;0.00;;;;;;;14.70;82.22;99686.91;5061423;28;20472;-79
2022/09/28 10:19:20;;;;;;;0.08;0.08;;;;;;;14.37;82.27;99674.34;5084435;28;20086;-74
2022/09/28 10:21:49;;;;;;;0.00;0.00;;;;;;;14.70;84.98;99686.91;5083440;28;20024;-73
2022/09/28 10:24:18;;;;;;;0.00;0.00;;;;;;;15.33;82.18;99681.53;5071326;28;20020;-76
2022/09/28 10:26:47;;;;;;;0.00;0.00;;;;;;;15.74;80.09;99688.50;5056020;28;20475;-74
2022/09/28 10:29:16;;;;;;;0.00;0.00;;;;;;;15.75;73.49;99661.25;5077591;28;20044;-75
2022/09/28 10:31:47;;;;;;;0.00;0.00;;;;;;;16.54;79.98;99690.81;5076676;28;20035;-75
2022/09/28 10:34:15;;;;;;;0.00;0.00;;;;;;;16.79;70.63;99692.19;5081358;28;20052;-74
2022/09/28 10:36:59;;;;;;;0.00;0.00;;;;;;;16.38;73.28;99686.41;5086174;28;20028;-81
2022/09/28 10:39:33;;;;;;;0.00;0.00;;;;;;;15.81;71.55;99680.50;5080248;28;20384;-73
2022/09/28 10:42:02;;;;;;;;;;;;;;;15.37;71.26;99698.22;5078481;28;20031;-72
2022/09/28 10:44:28;;;;;;;0.00;0.00;;;;;;;14.92;76.39;99696.13;5085285;28;19916;-71
2022/09/28 10:46:59;;;;;;;0.00;0.00;;;;;;;14.75;81.81;99689.06;5083527;28;20024;-71
2022/09/28 10:49:25;;;;;;;0.00;0.00;;;;;;;14.54;82.14;99701.28;5086449;28;20039;-71
2022/09/28 10:51:53;;;;;;;0.00;0.00;;;;;;;14.35;85.01;99697.97;5087329;28;20032;-72
2022/09/28 10:54:25;;;;;;;0.00;0.00;;;;;;;14.11;88.31;99677.25;5088412;28;20502;-71
2022/09/28 10:56:51;;;;;;;0.10;0.10;;;;;;;13.91;85.39;99691.09;5082220;28;20051;-71
2022/09/28 10:59:29;;;;;;;0.10;0.10;;;;;;;13.87;86.33;99694.31;5076815;28;20035;-72
2022/09/28 11:01:56;;;;;;;0.00;0.00;;;;;;;13.93;90.61;99666.63;5087148;28;20024;-70
2022/09/28 11:04:25;;;;;;;0.10;0.10;;;;;;;15.78;85.73;99691.69;5085163;28;20030;-71
2022/09/28 11:06:51;;;;;;;0.00;0.00;;;;;;;16.69;82.54;99690.78;5084523;28;20039;-75
2022/09/28 11:09:28;;;;;;;0.10;0.10;;;;;;;15.83;77.27;99690.09;5071431;28;20027;-71
2022/09/28 11:11:54;;;;;;;0.00;0.00;;;;;;;15.29;83.74;99667.50;5080571;28;20031;-71
2022/09/28 11:14:25;;;;;;;0.10;0.10;;;;;;;14.91;80.52;99701.69;5074796;28;20027;-71
2022/09/28 11:17:37;;;;;;;0.03;0.03;;;;;;;14.79;83.63;99701.22;5075273;28;20080;-72
2022/09/28 11:20:22;;;;;;;0.05;0.05;;;;;;;14.99;81.62;99698.94;5075141;28;20036;-74
2022/09/28 11:22:47;;;;;;;0.10;0.10;;;;;;;16.27;77.95;99685.84;5080381;28;20028;-72
2022/09/28 11:25:15;;;;;;;0.10;0.10;;;;;;;18.26;67.40;99686.59;5081498;28;20081;-72
2022/09/28 11:27:41;;;;;;;0.00;0.00;;;;;;;16.03;69.38;99690.47;5084650;28;20066;-71
2022/09/28 11:30:50;;;;;;;0.00;0.00;;;;;;;15.35;72.81;99695.72;5085534;28;20085;-70
2022/09/28 11:33:19;;;;;;;0.00;0.00;;;;;;;14.82;75.52;99693.63;5078160;28;20681;-71
2022/09/28 11:36:00;;;;;;;0.00;0.00;;;;;;;14.67;78.76;99693.47;5076789;28;20032;-71
2022/09/28 11:38:34;;;;;;;0.00;0.00;;;;;;;14.68;82.99;99692.50;5085865;28;20028;-71
2022/09/28 11:41:13;;;;;;;0.00;0.00;;;;;;;14.51;81.20;99685.41;5072008;28;20025;-70
2022/09/28 11:43:51;;;;;;;0.10;0.10;;;;;;;15.02;80.62;99687.78;5080235;28;20064;-72
2022/09/28 11:46:39;;;;;;;0.10;0.10;;;;;;;17.29;73.10;99688.00;5082183;28;20029;-71
2022/09/28 11:49:16;;;;;;;0.00;0.00;;;;;;;18.44;62.98;99677.94;5081993;28;20561;-71
2022/09/28 11:51:42;;;;;;;0.00;0.00;;;;;;;17.41;71.38;99669.34;5079317;28;20032;-70
2022/09/28 11:54:21;;;;;;;0.00;0.00;;;;;;;16.90;71.78;99673.75;5079762;28;20521;-70